Terminal Aerodrome Forecast
Issued by NWS Twin Cities, MN

Home | Current Version | Previous Version | Graphics & Text | Print | Product List | Glossary On
Versions: 1 2 3 4 5 6 7 8 9 10 11 12 13 14
000
FTUS43 KMPX 031731
TAFSTC
TAF
KSTC 031731Z 0318/0418 31020G30KT 2SM BLSN BKN025 BKN050
     FM032000 31020G30KT 3SM BLSN SCT025 BKN050
      TEMPO 0320/0324 2SM BLSN BKN025
     FM040100 30017G25KT P6SM SKC
     FM040600 29010KT P6SM SKC=

USA.gov is the U.S. government's official web portal to all federal, state and local government web resources and services.